Time;durP1;ratioP1;P1;durP2;ratioP2;P2;SDS_P1;SDS_P2;PMS_P1;PMS_P2;Temp;Humidity;BMP_temperature;BMP_pressure;BME280_temperature;BME280_humidity;BME280_pressure;Samples;Min_cycle;Max_cycle;Signal;HPM_P1;HPM_P2
2023/08/13 00:00:27;;;;;;;5.13;3.13;;;;;;;-142.57;69.22;115900.28;5042199;28;20083;-88
2023/08/13 00:02:52;;;;;;;11.80;3.60;;;;;;;-142.57;69.87;115900.28;5060081;28;20041;-89
2023/08/13 00:05:20;;;;;;;5.55;3.78;;;;;;;-142.57;69.82;115900.28;5041410;28;20033;-88
2023/08/13 00:07:52;;;;;;;11.10;3.58;;;;;;;-142.57;70.73;115900.28;5047673;28;20399;-88
2023/08/13 00:10:17;;;;;;;5.90;3.75;;;;;;;-142.57;71.58;115900.28;5071187;28;20063;-87
2023/08/13 00:12:43;;;;;;;10.60;3.72;;;;;;;-142.57;72.15;115900.28;5067258;28;20033;-88
2023/08/13 00:15:10;;;;;;;11.88;3.92;;;;;;;-142.57;72.51;115900.28;5065657;28;20029;-86
2023/08/13 00:17:39;;;;;;;7.18;3.92;;;;;;;-142.57;71.97;115900.28;5053483;28;20131;-86
2023/08/13 00:20:06;;;;;;;9.70;4.85;;;;;;;-142.57;71.88;115900.28;5072409;28;20073;-87
2023/08/13 00:22:32;;;;;;;12.77;5.10;;;;;;;-142.57;72.25;115900.28;5075725;28;20051;-88
2023/08/13 00:25:00;;;;;;;13.95;6.40;;;;;;;-142.57;73.95;115900.28;5076837;28;20037;-89
2023/08/13 00:27:45;;;;;;;10.23;7.20;;;;;;;-142.57;74.22;115900.28;5079281;28;20032;-89
2023/08/13 00:30:10;;;;;;;14.75;6.43;;;;;;;-142.57;74.55;115900.28;5080500;28;20021;-88
2023/08/13 00:32:36;;;;;;;15.45;7.25;;;;;;;-142.57;74.77;115900.28;5063006;28;20028;-87
2023/08/13 00:35:02;;;;;;;12.73;6.45;;;;;;;-142.57;74.45;115900.28;5079559;28;20032;-90
2023/08/13 00:37:27;;;;;;;7.63;5.88;;;;;;;-142.57;74.38;115900.28;5080030;28;20035;-91
2023/08/13 00:39:53;;;;;;;16.63;6.20;;;;;;;-142.57;74.05;115900.28;5080241;28;20028;-89
2023/08/13 00:42:18;;;;;;;9.10;5.60;;;;;;;-142.57;73.69;115900.28;5062833;28;20034;-88
2023/08/13 00:44:45;;;;;;;10.10;5.57;;;;;;;-142.57;73.66;115900.28;5062675;28;20027;-90
2023/08/13 00:47:51;;;;;;;12.02;6.38;;;;;;;-142.57;74.57;115900.28;5062729;28;20029;-90
2023/08/13 00:50:16;;;;;;;7.22;5.10;;;;;;;-142.57;75.75;115900.28;5062626;28;20028;-90
2023/08/13 00:52:42;;;;;;;13.55;6.22;;;;;;;-142.57;76.07;115900.28;5062573;28;20037;-90
2023/08/13 00:55:12;;;;;;;9.00;6.32;;;;;;;-142.57;77.44;115900.28;5062642;28;20101;-90
2023/08/13 00:57:41;;;;;;;16.77;6.28;;;;;;;-142.57;76.63;115900.28;5079863;28;20021;-92
2023/08/13 01:00:08;;;;;;;7.10;4.68;;;;;;;-142.57;76.56;115900.28;5079561;28;20017;-91
2023/08/13 01:02:34;;;;;;;9.55;5.20;;;;;;;-142.57;75.88;115900.28;5062223;28;20123;-90
2023/08/13 01:05:00;;;;;;;13.00;6.25;;;;;;;-142.57;75.95;115900.28;5079352;28;20021;-90
2023/08/13 01:07:33;;;;;;;10.23;5.75;;;;;;;-142.57;76.20;115900.28;5079502;28;20039;-91
2023/08/13 01:10:17;;;;;;;9.45;6.03;;;;;;;-142.57;75.52;115900.28;5079490;28;20025;-89
2023/08/13 01:12:59;;;;;;;11.05;6.05;;;;;;;-142.57;77.27;115900.28;5079378;28;20051;-88
2023/08/13 01:15:35;;;;;;;8.52;6.03;;;;;;;-142.57;78.48;115900.28;5079234;28;20083;-88
2023/08/13 01:18:01;;;;;;;12.93;6.28;;;;;;;-142.57;79.00;115900.28;5061910;28;20025;-88
2023/08/13 01:20:32;;;;;;;15.73;6.25;;;;;;;-142.57;80.37;115900.28;5061760;28;20023;-89
2023/08/13 01:22:58;;;;;;;7.13;5.38;;;;;;;-142.57;80.80;115900.28;5079156;28;20051;-89
2023/08/13 01:25:28;;;;;;;12.02;5.60;;;;;;;-142.57;80.05;115900.28;5061487;28;20592;-90
2023/08/13 01:28:34;;;;;;;13.02;6.18;;;;;;;-142.57;78.43;115900.28;5078484;28;20051;-91
2023/08/13 01:31:11;;;;;;;22.27;5.65;;;;;;;-142.57;80.61;115900.28;5061460;28;20097;-85
2023/08/13 01:33:43;;;;;;;12.63;5.85;;;;;;;-142.57;81.51;115900.28;5078836;28;20047;-90
2023/08/13 01:36:17;;;;;;;12.27;6.20;;;;;;;-142.57;79.74;115900.28;5078757;28;20035;-91
2023/08/13 01:38:44;;;;;;;9.88;5.80;;;;;;;-142.57;79.33;115900.28;5078976;28;20094;-90
2023/08/13 01:41:09;;;;;;;10.38;6.10;;;;;;;-142.57;79.64;115900.28;5061478;28;20025;-90
2023/08/13 01:43:41;;;;;;;8.80;5.97;;;;;;;-142.57;79.75;115900.28;5061384;28;20032;-92
2023/08/13 01:46:07;;;;;;;15.25;5.97;;;;;;;-142.57;79.47;115900.28;5078631;28;20054;-89
2023/08/13 01:48:48;;;;;;;10.30;5.50;;;;;;;-142.57;79.08;115900.28;5060653;28;20037;-92
2023/08/13 01:51:22;;;;;;;13.55;5.53;;;;;;;-142.57;79.90;115900.28;5078591;28;20025;-91
2023/08/13 01:53:52;;;;;;;15.07;5.40;;;;;;;-142.57;78.84;115900.28;5077718;28;20070;-89
2023/08/13 01:56:36;;;;;;;14.60;5.93;;;;;;;-142.57;79.39;115900.28;5078333;28;20020;-92
2023/08/13 01:59:02;;;;;;;10.63;6.03;;;;;;;-142.57;79.06;115900.28;5077203;28;20041;-91
2023/08/13 02:01:30;;;;;;;13.75;5.30;;;;;;;-142.57;78.56;115900.28;5077332;28;20013;-92
2023/08/13 02:04:02;;;;;;;25.27;5.60;;;;;;;-142.57;78.49;115900.28;5072090;28;20045;-90
2023/08/13 02:06:32;;;;;;;10.18;5.57;;;;;;;-142.57;78.39;115900.28;5061655;22;20057;-89
2023/08/13 02:09:00;;;;;;;10.82;5.50;;;;;;;-142.57;78.16;115900.28;5027257;28;20060;-92
2023/08/13 02:11:26;;;;;;;9.82;4.70;;;;;;;-142.57;78.77;115900.28;5041903;28;20036;-90
2023/08/13 02:13:53;;;;;;;10.95;5.50;;;;;;;-142.57;78.26;115900.28;5010065;28;20041;-91
2023/08/13 02:16:19;;;;;;;11.90;5.57;;;;;;;-142.57;77.71;115900.28;5028034;28;20042;-90
2023/08/13 02:18:51;;;;;;;9.25;4.93;;;;;;;-142.57;77.66;115900.28;5011410;28;20060;-90
2023/08/13 02:21:19;;;;;;;8.82;5.32;;;;;;;-142.57;78.34;115900.28;5045871;28;20034;-90
2023/08/13 02:23:50;;;;;;;10.50;5.40;;;;;;;-142.57;77.99;115900.28;5054361;28;20097;-90
2023/08/13 02:26:36;;;;;;;9.75;5.50;;;;;;;-142.57;77.23;115900.28;5057641;28;20041;-91
2023/08/13 02:29:03;;;;;;;10.27;5.82;;;;;;;-142.57;77.93;115900.28;5050442;28;20041;-90
2023/08/13 02:31:43;;;;;;;11.65;5.88;;;;;;;-142.57;78.32;115900.28;5028830;28;20423;-90
2023/08/13 02:34:50;;;;;;;9.77;3.97;;;;;;;-142.57;78.86;115900.28;5030414;28;20037;-90
2023/08/13 02:37:35;;;;;;;10.05;5.30;;;;;;;-142.57;77.60;115900.28;5030696;28;20081;-91
2023/08/13 02:40:01;;;;;;;9.85;4.93;;;;;;;-142.57;78.47;115900.28;5045201;28;20045;-92
2023/08/13 02:42:27;;;;;;;13.60;6.20;;;;;;;-142.57;81.55;115900.28;5044460;28;20025;-91
2023/08/13 02:44:56;;;;;;;9.77;5.53;;;;;;;-142.57;81.92;115900.28;5028723;28;20087;-90
2023/08/13 02:47:24;;;;;;;11.52;5.90;;;;;;;-142.57;81.57;115900.28;5027002;28;20412;-89
2023/08/13 02:49:50;;;;;;;10.55;6.10;;;;;;;-142.57;82.64;115900.28;5028975;28;20045;-90
2023/08/13 02:52:19;;;;;;;13.40;6.32;;;;;;;-142.57;83.33;115900.28;5028786;28;20040;-90
2023/08/13 02:54:44;;;;;;;16.45;6.00;;;;;;;-142.57;82.59;115900.28;5044017;28;20552;-90
2023/08/13 02:57:10;;;;;;;11.23;5.30;;;;;;;-142.57;82.95;115900.28;5045171;28;20051;-91
2023/08/13 02:59:36;;;;;;;11.27;5.45;;;;;;;-142.57;83.54;115900.28;5026318;28;20038;-92
2023/08/13 03:02:02;;;;;;;11.65;5.57;;;;;;;-142.57;82.70;115900.28;5025984;28;20085;-89
2023/08/13 03:04:34;;;;;;;8.88;5.70;;;;;;;-142.57;82.58;115900.28;5027492;28;20033;-89
2023/08/13 03:07:06;;;;;;;11.27;6.10;;;;;;;-142.57;83.27;115900.28;5043402;28;20049;-91
2023/08/13 03:09:41;;;;;;;15.60;7.80;;;;;;;-142.57;86.70;115900.28;5028903;28;20044;-90
2023/08/13 03:12:15;;;;;;;11.90;6.68;;;;;;;-142.57;88.04;115900.28;5027883;28;20048;-90
2023/08/13 03:14:41;;;;;;;12.10;7.13;;;;;;;-142.57;87.61;115900.28;5028190;28;20093;-92
2023/08/13 03:17:12;;;;;;;13.32;7.70;;;;;;;-142.57;86.83;115900.28;5045879;28;20120;-91
2023/08/13 03:19:40;;;;;;;10.55;7.30;;;;;;;-142.57;87.25;115900.28;5043181;28;20045;-91
2023/08/13 03:22:06;;;;;;;11.68;7.40;;;;;;;-142.57;87.41;115900.28;5036451;28;20040;-93
2023/08/13 03:24:32;;;;;;;17.92;7.10;;;;;;;-142.57;88.92;115900.28;5020812;28;20410;-89
2023/08/13 03:27:00;;;;;;;8.75;6.90;;;;;;;-142.57;87.67;115900.28;5043106;28;20041;-90
2023/08/13 03:29:27;;;;;;;7.93;7.05;;;;;;;-142.57;87.20;115900.28;5044284;28;20029;-91
2023/08/13 03:32:00;;;;;;;17.58;7.30;;;;;;;-142.57;86.56;115900.28;5047390;28;20023;-90
2023/08/13 03:34:25;;;;;;;8.75;6.43;;;;;;;-142.57;85.98;115900.28;5052856;28;20068;-91
2023/08/13 03:36:52;;;;;;;12.68;6.45;;;;;;;-142.57;86.26;115900.28;5051382;28;20018;-90
2023/08/13 03:39:19;;;;;;;11.82;6.90;;;;;;;-142.57;86.41;115900.28;5026623;28;20037;-90
2023/08/13 03:41:45;;;;;;;12.98;6.90;;;;;;;-142.57;88.09;115900.28;5028199;28;20056;-91
2023/08/13 03:44:11;;;;;;;8.23;6.40;;;;;;;-142.57;86.81;115900.28;5005224;28;20041;-92
2023/08/13 03:47:00;;;;;;;12.23;6.75;;;;;;;-142.57;87.32;115900.28;5030094;28;20357;-90
2023/08/13 03:49:51;;;;;;;13.35;7.18;;;;;;;-142.57;88.07;115900.28;5065437;22;20041;-92
2023/08/13 03:52:17;;;;;;;11.30;6.68;;;;;;;-142.57;88.16;115900.28;5053589;28;20063;-88
2023/08/13 03:54:45;;;;;;;12.45;7.57;;;;;;;-142.57;89.36;115900.28;5055585;28;20035;-89
2023/08/13 03:57:17;;;;;;;10.10;6.50;;;;;;;-142.57;89.96;115900.28;5055101;28;20044;-90
2023/08/13 03:59:50;;;;;;;14.00;7.53;;;;;;;-142.57;90.70;115900.28;5067438;28;20044;-93
2023/08/13 04:02:16;;;;;;;14.18;8.73;;;;;;;-142.57;92.12;115900.28;5068353;28;20033;-92
2023/08/13 04:04:50;;;;;;;17.90;8.60;;;;;;;-142.57;94.21;115900.28;5012230;28;20462;-91
2023/08/13 04:07:15;;;;;;;16.50;9.02;;;;;;;-142.57;94.67;115900.28;5044807;28;20068;-92
2023/08/13 04:09:41;;;;;;;18.13;9.40;;;;;;;-142.57;96.20;115900.28;5045034;28;20036;-92
2023/08/13 04:12:16;;;;;;;13.13;9.38;;;;;;;-142.57;96.64;115900.28;5049002;28;20033;-90
2023/08/13 04:14:45;;;;;;;16.67;9.35;;;;;;;-142.57;95.91;115900.28;5065405;28;20118;-88
2023/08/13 04:17:11;;;;;;;14.40;9.75;;;;;;;-142.57;94.70;115900.28;5045241;28;20116;-93
2023/08/13 04:19:36;;;;;;;20.40;10.13;;;;;;;-142.57;96.56;115900.28;5048883;28;20099;-92
2023/08/13 04:22:05;;;;;;;12.57;9.93;;;;;;;-142.57;97.51;115900.28;5010678;28;20037;-90
2023/08/13 04:24:31;;;;;;;13.10;10.60;;;;;;;-142.57;98.76;115900.28;5028459;28;20087;-91
2023/08/13 04:26:56;;;;;;;17.33;10.77;;;;;;;-142.57;98.81;115900.28;5043743;28;20383;-88
2023/08/13 04:29:22;;;;;;;15.50;10.07;;;;;;;-142.57;99.40;115900.28;5041350;28;20071;-92
2023/08/13 04:31:51;;;;;;;13.15;10.48;;;;;;;-142.57;99.51;115900.28;5042174;28;20060;-92
2023/08/13 04:34:17;;;;;;;15.80;9.73;;;;;;;-142.57;99.21;115900.28;5060576;28;20029;-92
2023/08/13 04:36:43;;;;;;;14.52;10.18;;;;;;;-142.57;100.00;115900.28;5036847;28;20124;-89
2023/08/13 04:39:11;;;;;;;15.55;9.60;;;;;;;-142.57;100.00;115900.28;5050150;28;20040;-91
2023/08/13 04:41:39;;;;;;;14.23;9.20;;;;;;;-142.57;100.00;115900.28;5028084;28;20108;-91
2023/08/13 04:44:06;;;;;;;10.95;9.25;;;;;;;-142.57;100.00;115900.28;5043219;28;20056;-90
2023/08/13 04:46:52;;;;;;;24.60;9.02;;;;;;;-142.57;100.00;115900.28;5047682;28;20465;-91
2023/08/13 04:49:18;;;;;;;12.43;8.38;;;;;;;-142.57;100.00;115900.28;5051752;28;20048;-92
2023/08/13 04:51:46;;;;;;;16.20;9.07;;;;;;;-142.57;100.00;115900.28;5077312;28;20024;-88
2023/08/13 04:54:12;;;;;;;15.07;8.73;;;;;;;-142.57;100.00;115900.28;5076492;28;20017;-90
2023/08/13 04:56:37;;;;;;;17.70;9.10;;;;;;;-142.57;100.00;115900.28;5061271;28;20088;-91
2023/08/13 04:59:04;;;;;;;11.93;8.60;;;;;;;-142.57;100.00;115900.28;5043966;28;20095;-91
2023/08/13 05:01:34;;;;;;;11.73;8.50;;;;;;;-142.57;100.00;115900.28;5057930;28;20052;-88
2023/08/13 05:04:07;;;;;;;11.80;8.05;;;;;;;-142.57;100.00;115900.28;5045997;28;20040;-92
2023/08/13 05:06:35;;;;;;;11.00;8.05;;;;;;;-142.57;100.00;115900.28;5041824;28;20055;-89
2023/08/13 05:09:00;;;;;;;13.95;8.00;;;;;;;-142.57;100.00;115900.28;5023061;28;20411;-90
2023/08/13 05:11:26;;;;;;;14.57;8.27;;;;;;;-142.57;99.54;115900.28;5059789;28;20033;-87
2023/08/13 05:13:52;;;;;;;11.45;7.85;;;;;;;-142.57;99.70;115900.28;5044027;28;20032;-88
2023/08/13 05:16:20;;;;;;;9.07;7.30;;;;;;;-142.57;99.05;115900.28;5065046;28;20044;-84
2023/08/13 05:18:47;;;;;;;10.27;7.80;;;;;;;-142.57;98.44;115900.28;5051875;28;20036;-85
2023/08/13 05:21:14;;;;;;;16.90;7.82;;;;;;;-142.57;97.65;115900.28;5031448;28;20051;-88
2023/08/13 05:23:40;;;;;;;9.70;7.57;;;;;;;-142.57;95.94;115900.28;5057212;28;20040;-86
2023/08/13 05:26:06;;;;;;;13.73;7.43;;;;;;;-142.57;95.64;115900.28;5059732;28;20048;-87
2023/08/13 05:28:32;;;;;;;10.98;7.32;;;;;;;-142.57;94.37;115900.28;5040636;28;20041;-86
2023/08/13 05:31:02;;;;;;;13.80;7.43;;;;;;;-142.57;91.14;115900.28;5038456;28;20546;-87
2023/08/13 05:33:29;;;;;;;15.18;7.10;;;;;;;-142.57;90.42;115900.28;5038602;28;20036;-88
2023/08/13 05:35:58;;;;;;;10.52;7.15;;;;;;;-142.57;89.52;115900.28;5038655;28;20040;-85
2023/08/13 05:38:23;;;;;;;10.13;6.88;;;;;;;-142.57;87.61;115900.28;5038344;28;20067;-90
2023/08/13 05:40:49;;;;;;;14.68;7.15;;;;;;;-142.57;84.55;115900.28;5037562;28;20037;-87
2023/08/13 05:43:15;;;;;;;10.30;7.65;;;;;;;-142.57;83.42;115900.28;5022346;28;20033;-87
2023/08/13 05:45:42;;;;;;;17.30;8.10;;;;;;;-142.57;81.79;115900.28;5044838;28;20056;-88
2023/08/13 05:48:07;;;;;;;13.63;8.07;;;;;;;-142.57;79.05;115900.28;5068731;28;20043;-89
2023/08/13 05:50:33;;;;;;;11.80;7.70;;;;;;;-142.57;74.96;115900.28;5040789;28;20048;-89
2023/08/13 05:52:58;;;;;;;10.80;7.93;;;;;;;-142.57;74.20;115900.28;5056007;28;20472;-89
2023/08/13 05:55:24;;;;;;;17.35;8.10;;;;;;;-142.57;72.40;115900.28;5058524;28;20025;-88
2023/08/13 05:57:50;;;;;;;17.90;8.50;;;;;;;-142.57;73.37;115900.28;5061445;28;20052;-86
2023/08/13 06:00:16;;;;;;;17.83;8.38;;;;;;;-142.57;69.11;115900.28;5037254;28;20090;-88
2023/08/13 06:02:42;;;;;;;12.88;8.10;;;;;;;-142.57;70.30;115900.28;5055948;28;20043;-87
2023/08/13 06:05:08;;;;;;;13.60;7.93;;;;;;;-142.57;69.91;115900.28;5059277;28;20087;-89
2023/08/13 06:07:34;;;;;;;17.50;8.05;;;;;;;-142.57;68.15;115900.28;5056830;28;20041;-90
2023/08/13 06:10:01;;;;;;;14.25;7.82;;;;;;;-142.57;68.39;115900.28;5057007;28;20663;-91
2023/08/13 06:12:30;;;;;;;9.57;7.47;;;;;;;-142.57;67.28;115900.28;5024910;28;20040;-89
2023/08/13 06:14:56;;;;;;;15.55;8.35;;;;;;;-142.57;67.66;115900.28;5054848;28;20044;-83
2023/08/13 06:17:25;;;;;;;11.38;7.45;;;;;;;-142.57;66.77;115900.28;5059533;28;20347;-88
2023/08/13 06:19:51;;;;;;;10.13;7.63;;;;;;;-142.57;65.85;115900.28;5060820;28;20086;-90
2023/08/13 06:22:19;;;;;;;12.02;7.72;;;;;;;-142.57;64.04;115900.28;5059498;28;20037;-90
2023/08/13 06:24:45;;;;;;;11.80;7.55;;;;;;;-142.57;62.70;115900.28;5065154;28;20029;-92
2023/08/13 06:27:11;;;;;;;16.02;9.27;;;;;;;-142.57;59.75;115900.28;5046447;28;20106;-89
2023/08/13 06:29:36;;;;;;;21.55;7.65;;;;;;;-142.57;56.82;115900.28;5057935;28;20103;-87
2023/08/13 06:32:02;;;;;;;14.63;8.10;;;;;;;-142.57;56.63;115900.28;5059716;28;20033;-88
2023/08/13 06:34:28;;;;;;;17.20;7.53;;;;;;;-142.57;52.86;115900.28;5059539;28;20032;-88
2023/08/13 06:36:53;;;;;;;11.30;8.07;;;;;;;-142.57;52.67;115900.28;5058661;28;20065;-87
2023/08/13 06:39:21;;;;;;;14.57;7.18;;;;;;;-142.57;55.28;115900.28;5055781;28;20048;-88
2023/08/13 06:41:47;;;;;;;12.77;7.95;;;;;;;-142.57;55.25;115900.28;5058147;28;20025;-90
2023/08/13 06:44:20;;;;;;;8.80;6.20;;;;;;;-142.57;55.58;115900.28;5021673;28;20089;-86
2023/08/13 06:46:51;;;;;;;16.33;7.82;;;;;;;-142.57;54.89;115900.28;5056212;28;20040;-85
2023/08/13 06:49:20;;;;;;;10.25;7.03;;;;;;;-142.57;52.36;115900.28;5037397;28;20518;-88
2023/08/13 06:51:46;;;;;;;9.70;6.88;;;;;;;-142.57;52.22;115900.28;5038439;28;20037;-89
2023/08/13 06:54:12;;;;;;;9.95;5.28;;;;;;;-142.57;46.93;115900.28;5055055;28;20087;-88
2023/08/13 06:56:38;;;;;;;9.77;6.57;;;;;;;-142.57;47.58;115900.28;5054349;28;20033;-87
2023/08/13 06:59:04;;;;;;;11.15;5.43;;;;;;;-142.57;47.79;115900.28;5054717;28;20043;-88
2023/08/13 07:01:30;;;;;;;11.90;6.07;;;;;;;-142.57;48.29;115900.28;5037344;28;20058;-89
2023/08/13 07:03:59;;;;;;;9.15;4.93;;;;;;;-142.57;50.03;115900.28;5054611;28;20029;-89
2023/08/13 07:06:25;;;;;;;8.63;5.38;;;;;;;-142.57;49.85;115900.28;5055266;28;20466;-84
2023/08/13 07:08:51;;;;;;;9.02;6.28;;;;;;;-142.57;50.71;115900.28;5039181;28;20028;-85
2023/08/13 07:11:16;;;;;;;9.85;5.60;;;;;;;-142.57;49.35;115900.28;5039605;28;20033;-86
2023/08/13 07:13:42;;;;;;;12.80;6.65;;;;;;;-142.57;50.79;115900.28;5042117;28;20033;-84
2023/08/13 07:16:10;;;;;;;16.00;6.28;;;;;;;-142.57;50.81;115900.28;5059043;28;20033;-85
2023/08/13 07:18:36;;;;;;;20.63;7.00;;;;;;;-142.57;53.01;115900.28;5056967;28;20082;-86
2023/08/13 07:21:04;;;;;;;14.55;5.72;;;;;;;-142.57;54.46;115900.28;5054708;28;20372;-85
2023/08/13 07:23:30;;;;;;;13.93;7.18;;;;;;;-142.57;55.32;115900.28;5036143;28;20089;-90
2023/08/13 07:25:56;;;;;;;13.85;6.32;;;;;;;-142.57;55.53;115900.28;5037943;28;20429;-87
2023/08/13 07:28:22;;;;;;;13.15;7.50;;;;;;;-142.57;57.59;115900.28;5040215;28;20041;-87
2023/08/13 07:30:48;;;;;;;22.10;8.38;;;;;;;-142.57;58.49;115900.28;5040143;28;20123;-89
2023/08/13 07:33:13;;;;;;;13.52;6.68;;;;;;;-142.57;59.03;115900.28;5060097;28;20039;-90
2023/08/13 07:35:39;;;;;;;14.25;8.20;;;;;;;-142.57;58.86;115900.28;5039974;28;20119;-87
2023/08/13 07:38:05;;;;;;;18.95;8.00;;;;;;;-142.57;59.61;115900.28;5058646;28;20051;-87
2023/08/13 07:40:34;;;;;;;13.55;8.10;;;;;;;-142.57;59.06;115900.28;5058965;28;20475;-91
2023/08/13 07:43:00;;;;;;;22.25;9.38;;;;;;;-142.57;57.98;115900.28;5061188;28;20035;-89
2023/08/13 07:45:27;;;;;;;20.98;8.32;;;;;;;-142.57;58.63;115900.28;5059821;28;20078;-86
2023/08/13 07:47:52;;;;;;;21.02;7.85;;;;;;;-142.57;58.30;115900.28;5044858;28;20053;-86
2023/08/13 07:50:18;;;;;;;17.13;9.35;;;;;;;-142.57;59.19;115900.28;5050234;28;20044;-84
2023/08/13 07:52:43;;;;;;;20.77;9.60;;;;;;;-142.57;58.01;115900.28;5070483;28;20032;-87
2023/08/13 07:55:10;;;;;;;17.30;8.93;;;;;;;-142.57;57.55;115900.28;5063691;28;20055;-87
2023/08/13 07:57:36;;;;;;;14.98;7.80;;;;;;;-142.57;56.45;115900.28;5060817;28;20555;-89
2023/08/13 08:00:02;;;;;;;15.60;8.82;;;;;;;-142.57;56.24;115900.28;5039182;28;20064;-88
2023/08/13 08:02:37;;;;;;;11.43;7.97;;;;;;;-142.57;56.24;115900.28;5042018;28;20048;-90
2023/08/13 08:05:05;;;;;;;11.15;6.53;;;;;;;-142.57;55.48;115900.28;5042594;28;20030;-89
2023/08/13 08:07:31;;;;;;;9.65;7.30;;;;;;;-142.57;53.79;115900.28;5055466;28;20030;-91
2023/08/13 08:10:00;;;;;;;9.82;8.05;;;;;;;-142.57;51.81;115900.28;5042429;28;20044;-88
2023/08/13 08:12:26;;;;;;;14.73;7.88;;;;;;;-142.57;50.92;115900.28;5042575;28;20105;-88
2023/08/13 08:14:51;;;;;;;16.25;6.60;;;;;;;-142.57;47.89;115900.28;5044012;28;20029;-89
2023/08/13 08:17:17;;;;;;;13.10;9.35;;;;;;;-142.57;47.56;115900.28;5044412;28;20045;-85
2023/08/13 08:19:43;;;;;;;11.25;9.10;;;;;;;-142.57;49.99;115900.28;5040889;28;20026;-86
2023/08/13 08:22:10;;;;;;;11.07;9.23;;;;;;;-142.57;50.20;115900.28;5043565;28;20554;-89
2023/08/13 08:24:35;;;;;;;10.73;8.05;;;;;;;-142.57;49.52;115900.28;5041856;28;20037;-88
2023/08/13 08:27:07;;;;;;;14.57;7.95;;;;;;;-142.57;49.73;115900.28;5024096;28;20510;-91
2023/08/13 08:29:37;;;;;;;16.58;6.35;;;;;;;-142.57;47.66;115900.28;5025565;28;20046;-88
2023/08/13 08:32:02;;;;;;;9.98;6.80;;;;;;;-142.57;44.33;115900.28;5027203;28;20487;-88
2023/08/13 08:34:30;;;;;;;11.40;7.45;;;;;;;-142.57;45.74;115900.28;5041374;28;20048;-90
2023/08/13 08:36:56;;;;;;;11.70;7.63;;;;;;;-142.57;47.13;115900.28;5036338;28;20033;-86
2023/08/13 08:39:21;;;;;;;17.17;7.30;;;;;;;-142.57;45.88;115900.28;5036018;28;20075;-85
2023/08/13 08:41:48;;;;;;;11.43;8.20;;;;;;;-142.57;43.10;115900.28;5036517;28;20069;-88
2023/08/13 08:44:21;;;;;;;15.88;8.48;;;;;;;-142.57;41.56;115900.28;5019640;28;20021;-86
2023/08/13 08:46:51;;;;;;;16.10;6.82;;;;;;;-142.57;42.16;115900.28;5039737;28;20377;-87
2023/08/13 08:49:19;;;;;;;11.45;8.40;;;;;;;-142.57;43.88;115900.28;5037713;28;20045;-87
2023/08/13 08:51:45;;;;;;;16.05;8.85;;;;;;;-142.57;46.24;115900.28;5003225;28;20030;-84
2023/08/13 08:54:11;;;;;;;11.18;8.30;;;;;;;-142.57;45.53;115900.28;5035843;28;20420;-86
2023/08/13 08:56:37;;;;;;;14.30;8.50;;;;;;;-142.57;46.55;115900.28;5038492;28;20097;-85
2023/08/13 08:59:05;;;;;;;10.82;8.05;;;;;;;-142.57;47.06;115900.28;5038212;28;20052;-85
2023/08/13 09:01:31;;;;;;;13.43;7.97;;;;;;;-142.57;46.92;115900.28;5019658;28;20425;-88
2023/08/13 09:03:57;;;;;;;12.68;5.88;;;;;;;-142.57;44.69;115900.28;5037588;28;20349;-88
2023/08/13 09:06:22;;;;;;;12.88;7.38;;;;;;;-142.57;44.54;115900.28;5041085;28;20091;-83
2023/08/13 09:08:49;;;;;;;9.63;6.65;;;;;;;-142.57;43.20;115900.28;5022219;28;20439;-89
2023/08/13 09:11:14;;;;;;;7.82;4.78;;;;;;;-142.57;43.54;115900.28;5023806;28;20030;-87
2023/08/13 09:13:50;;;;;;;7.35;4.43;;;;;;;-142.57;41.97;115900.28;5024867;28;20026;-87
2023/08/13 09:16:19;;;;;;;10.15;4.35;;;;;;;-142.57;40.16;115900.28;5023504;28;20046;-90
2023/08/13 09:18:44;;;;;;;10.18;5.43;;;;;;;-142.57;40.41;115900.28;5008100;28;20026;-85
2023/08/13 09:21:10;;;;;;;8.98;4.97;;;;;;;-142.57;40.22;115900.28;5017869;28;20365;-88
2023/08/13 09:23:39;;;;;;;7.82;6.03;;;;;;;-142.57;40.28;115900.28;5048931;28;20037;-85
2023/08/13 09:26:05;;;;;;;17.00;4.30;;;;;;;-142.57;37.04;115900.28;5034246;28;20033;-86
2023/08/13 09:28:30;;;;;;;6.80;3.80;;;;;;;-142.57;37.72;115900.28;5052100;28;20041;-87
2023/08/13 09:30:59;;;;;;;12.70;3.72;;;;;;;-142.57;38.56;115900.28;5042384;28;20450;-84
2023/08/13 09:33:26;;;;;;;5.45;3.25;;;;;;;-142.57;40.30;115900.28;5042656;28;20038;-88
2023/08/13 09:35:52;;;;;;;8.82;2.80;;;;;;;-142.57;39.51;115900.28;5036017;28;20366;-86
2023/08/13 09:38:31;;;;;;;4.32;2.65;;;;;;;-142.57;39.73;115900.28;5045816;28;20091;-85
2023/08/13 09:40:58;;;;;;;7.03;3.20;;;;;;;-142.57;40.75;115900.28;5034583;28;20459;-86
2023/08/13 09:43:25;;;;;;;10.23;3.35;;;;;;;-142.57;41.14;115900.28;5034490;28;20039;-86
2023/08/13 09:45:54;;;;;;;9.60;3.20;;;;;;;-142.57;39.05;115900.28;5035417;28;20063;-86
2023/08/13 09:48:21;;;;;;;7.95;3.28;;;;;;;-142.57;39.17;115900.28;5033303;28;20566;-86
2023/08/13 09:50:50;;;;;;;7.63;3.30;;;;;;;-142.57;39.23;115900.28;5034455;28;20037;-85
2023/08/13 09:53:20;;;;;;;11.48;3.40;;;;;;;-142.57;38.02;115900.28;5034876;28;20112;-89
2023/08/13 09:55:51;;;;;;;6.30;2.97;;;;;;;-142.57;37.13;115900.28;5035966;28;20056;-86
2023/08/13 09:58:18;;;;;;;7.18;2.28;;;;;;;-142.57;36.20;115900.28;5035636;28;20029;-88
2023/08/13 10:00:45;;;;;;;15.27;2.55;;;;;;;-142.57;35.56;115900.28;5033358;28;20128;-87
2023/08/13 10:03:11;;;;;;;7.13;2.97;;;;;;;-142.57;35.89;115900.28;5034722;28;20065;-85
2023/08/13 10:05:38;;;;;;;8.60;2.90;;;;;;;-142.57;36.03;115900.28;5034688;28;20420;-86
2023/08/13 10:08:05;;;;;;;7.85;3.03;;;;;;;-142.57;36.16;115900.28;5034727;28;20519;-86
2023/08/13 10:10:31;;;;;;;9.45;3.50;;;;;;;-142.57;36.63;115900.28;5034377;28;20068;-86
2023/08/13 10:12:57;;;;;;;6.30;2.70;;;;;;;-142.57;36.44;115900.28;5033645;28;20048;-84
2023/08/13 10:15:23;;;;;;;7.57;3.10;;;;;;;-142.57;37.31;115900.28;5034431;28;20040;-85
2023/08/13 10:17:49;;;;;;;4.93;3.00;;;;;;;-142.57;36.81;115900.28;5034234;28;20510;-88
2023/08/13 10:20:18;;;;;;;6.55;3.08;;;;;;;-142.57;36.24;115900.28;5034281;28;20392;-85
2023/08/13 10:22:45;;;;;;;3.60;2.45;;;;;;;-142.57;35.73;115900.28;5018458;28;20029;-85
2023/08/13 10:25:26;;;;;;;6.40;2.72;;;;;;;-142.57;33.61;115900.28;5035661;28;20033;-86
2023/08/13 10:27:52;;;;;;;3.87;2.23;;;;;;;-142.57;33.16;115900.28;5038430;28;20468;-87
2023/08/13 10:30:18;;;;;;;7.03;2.72;;;;;;;-142.57;33.82;115900.28;5037740;28;20292;-88
2023/08/13 10:33:13;;;;;;;9.25;2.53;;;;;;;-142.57;32.88;115900.28;5036382;28;20043;-83
2023/08/13 10:35:40;;;;;;;8.93;2.95;;;;;;;-142.57;33.56;115900.28;4977620;28;20051;-82
2023/08/13 10:38:07;;;;;;;4.60;2.53;;;;;;;-142.57;35.07;115900.28;4976031;28;20038;-88
2023/08/13 10:40:36;;;;;;;7.00;2.53;;;;;;;-142.57;34.67;115900.28;4959773;28;20096;-88
2023/08/13 10:43:05;;;;;;;5.70;2.33;;;;;;;-142.57;34.90;115900.28;4978741;28;20101;-88
2023/08/13 10:45:34;;;;;;;4.13;2.55;;;;;;;-142.57;35.03;115900.28;4957005;28;20049;-86
2023/08/13 10:48:06;;;;;;;7.10;2.47;;;;;;;-142.57;34.85;115900.28;5033686;28;20462;-88
2023/08/13 10:50:35;;;;;;;6.82;2.65;;;;;;;-142.57;34.92;115900.28;5033614;28;20103;-85
2023/08/13 10:53:02;;;;;;;8.23;2.80;;;;;;;-142.57;34.66;115900.28;5033304;28;20495;-84
2023/08/13 10:55:36;;;;;;;10.43;2.60;;;;;;;-142.57;34.28;115900.28;5033407;28;20044;-84
2023/08/13 10:58:03;;;;;;;7.20;2.17;;;;;;;-142.57;34.12;115900.28;5034097;28;20033;-86
2023/08/13 11:00:29;;;;;;;7.65;2.20;;;;;;;-142.57;33.81;115900.28;5033610;28;20025;-86
2023/08/13 11:03:21;;;;;;;8.45;2.50;;;;;;;-142.57;34.23;115900.28;5037659;28;20044;-90
2023/08/13 11:05:48;;;;;;;10.95;2.85;;;;;;;-142.57;33.94;115900.28;5044127;28;20104;-88
2023/08/13 11:08:21;;;;;;;8.20;2.40;;;;;;;-142.57;33.22;115900.28;5016824;28;20084;-87
2023/08/13 11:10:47;;;;;;;4.13;2.78;;;;;;;-142.57;34.28;115900.28;5030104;28;20037;-86